createdAt,value
2019-02-04T00:01:10.336Z,35.07
2019-02-04T00:03:40.072Z,40.30
2019-02-04T00:06:10.160Z,35.30
2019-02-04T00:08:39.487Z,38.83
2019-02-04T00:11:08.812Z,39.07
2019-02-04T00:13:38.457Z,35.83
2019-02-04T00:16:08.208Z,38.17
2019-02-04T00:18:37.887Z,38.63
2019-02-04T00:21:07.203Z,43.13
2019-02-04T00:23:36.884Z,37.40
2019-02-04T00:26:06.215Z,36.23
2019-02-04T00:28:35.890Z,36.27
2019-02-04T00:31:05.381Z,36.20
2019-02-04T00:33:34.816Z,34.93
2019-02-04T00:36:04.167Z,35.83
2019-02-04T00:38:33.467Z,36.80
2019-02-04T00:41:02.791Z,34.67
2019-02-04T00:43:32.139Z,34.37
2019-02-04T00:46:01.543Z,33.33
2019-02-04T00:48:31.225Z,31.53
2019-02-04T00:51:00.570Z,33.27
2019-02-04T00:53:29.922Z,32.20
2019-02-04T00:55:59.343Z,32.60
2019-02-04T00:58:28.680Z,31.90
2019-02-04T01:00:58.005Z,31.60
2019-02-04T01:03:27.719Z,30.77
2019-02-04T01:05:57.030Z,34.27
2019-02-04T01:08:26.747Z,30.57
2019-02-04T01:10:56.083Z,31.47
2019-02-04T01:13:25.407Z,27.57
2019-02-04T01:15:55.049Z,27.30
2019-02-04T01:18:24.773Z,28.50
2019-02-04T01:20:54.480Z,27.63
2019-02-04T01:23:24.185Z,29.30
2019-02-04T01:25:53.520Z,28.63
2019-02-04T01:28:22.853Z,28.80
2019-02-04T01:30:52.757Z,29.20
2019-02-04T01:33:22.130Z,29.27
2019-02-04T01:35:51.800Z,27.43
2019-02-04T01:38:21.479Z,28.43
2019-02-04T01:40:51.128Z,32.80
2019-02-04T01:43:20.460Z,31.80
2019-02-04T01:45:50.343Z,27.43
2019-02-04T01:48:19.957Z,27.20
2019-02-04T01:50:49.305Z,26.37
2019-02-04T01:53:18.965Z,26.60
2019-02-04T01:55:48.309Z,28.60
2019-02-04T01:58:17.676Z,26.33
2019-02-04T02:00:47.365Z,28.03
2019-02-04T02:03:16.698Z,27.87
2019-02-04T02:05:46.425Z,27.90
2019-02-04T02:08:15.747Z,36.47
2019-02-04T02:10:45.325Z,26.97
2019-02-04T02:13:15.399Z,25.07
2019-02-04T02:15:45.124Z,26.27
2019-02-04T02:18:14.465Z,28.70
2019-02-04T02:20:43.817Z,30.10
2019-02-04T02:23:13.146Z,27.10
2019-02-04T02:25:42.777Z,30.03
2019-02-04T02:28:12.452Z,30.00
2019-02-04T02:30:41.739Z,32.20
2019-02-04T02:33:11.426Z,33.43
2019-02-04T02:35:41.036Z,31.03
2019-02-04T02:38:10.640Z,32.13
2019-02-04T02:40:40.472Z,27.43
2019-02-04T02:43:11.689Z,30.13
2019-02-04T02:45:41.623Z,28.77
2019-02-04T02:48:10.940Z,30.83
2019-02-04T02:50:40.269Z,33.47
2019-02-04T02:53:09.608Z,29.67
2019-02-04T02:55:39.301Z,29.27
2019-02-04T02:58:08.618Z,26.43
2019-02-04T03:00:38.246Z,24.77
2019-02-04T03:03:07.604Z,25.53
2019-02-04T03:05:36.965Z,29.60
2019-02-04T03:08:06.666Z,27.17
2019-02-04T03:10:36.014Z,29.80
2019-02-04T03:13:05.671Z,25.97
2019-02-04T03:15:35.002Z,24.70
2019-02-04T03:18:04.351Z,31.80
2019-02-04T03:20:33.682Z,23.07
2019-02-04T03:23:03.030Z,23.93
2019-02-04T03:25:51.791Z,25.40
2019-02-04T03:28:21.541Z,27.93
2019-02-04T03:30:51.074Z,25.10
2019-02-04T03:33:20.386Z,29.50
2019-02-04T03:35:49.723Z,26.23
2019-02-04T03:38:19.050Z,24.53
2019-02-04T03:40:48.396Z,23.63
2019-02-04T03:43:17.817Z,25.37
2019-02-04T03:45:47.454Z,25.77
2019-02-04T03:48:17.175Z,23.77
2019-02-04T03:50:46.546Z,23.83
2019-02-04T03:53:16.040Z,27.23
2019-02-04T03:55:45.679Z,28.40
2019-02-04T03:58:15.024Z,25.03
2019-02-04T04:00:44.367Z,30.00
2019-02-04T04:03:13.712Z,31.87
2019-02-04T04:05:43.112Z,28.37
2019-02-04T04:08:12.820Z,24.70
2019-02-04T04:10:42.275Z,26.87
2019-02-04T04:13:11.591Z,29.10
2019-02-04T04:15:41.129Z,26.40
2019-02-04T04:18:15.881Z,24.00
2019-02-04T04:20:42.134Z,26.93
2019-02-04T04:23:11.488Z,28.13
2019-02-04T04:25:41.169Z,29.00
2019-02-04T04:28:10.959Z,24.20
2019-02-04T04:30:40.575Z,26.10
2019-02-04T04:33:10.296Z,25.90
2019-02-04T04:35:39.983Z,29.80
2019-02-04T04:38:09.321Z,26.63
2019-02-04T04:40:38.994Z,28.90
2019-02-04T04:43:08.348Z,27.17
2019-02-04T04:45:37.993Z,26.37
2019-02-04T04:48:07.609Z,30.57
2019-02-04T04:50:36.930Z,26.93
2019-02-04T04:53:06.630Z,27.33
2019-02-04T04:55:35.944Z,30.20
2019-02-04T04:58:05.286Z,31.33
2019-02-04T05:00:34.930Z,30.10
2019-02-04T05:03:04.366Z,26.80
2019-02-04T05:05:34.135Z,28.43
2019-02-04T05:08:03.763Z,31.47
2019-02-04T05:10:33.471Z,28.80
2019-02-04T05:13:03.378Z,27.30
2019-02-04T05:15:32.743Z,30.67
2019-02-04T05:18:02.073Z,29.23
2019-02-04T05:20:31.415Z,28.30
2019-02-04T05:23:01.086Z,32.17
2019-02-04T05:25:30.414Z,26.83
2019-02-04T05:28:00.089Z,27.77
2019-02-04T05:30:29.697Z,27.33
2019-02-04T05:32:59.084Z,23.93
2019-02-04T05:35:28.921Z,26.27
2019-02-04T05:37:58.245Z,29.10
2019-02-04T05:40:27.936Z,26.50
2019-02-04T05:42:57.288Z,26.73
2019-02-04T05:45:26.602Z,21.17
2019-02-04T05:47:55.970Z,25.73
2019-02-04T05:50:25.759Z,27.07
2019-02-04T05:52:55.097Z,22.73
2019-02-04T05:55:25.032Z,20.77
2019-02-04T05:57:54.713Z,27.57
2019-02-04T06:00:34.376Z,30.33
2019-02-04T06:03:03.731Z,25.80
2019-02-04T06:05:34.282Z,24.70
2019-02-04T06:08:04.462Z,22.90
2019-02-04T06:10:34.155Z,24.23
2019-02-04T06:13:03.541Z,24.83
2019-02-04T06:15:33.152Z,23.93
2019-02-04T06:18:02.613Z,23.97
2019-02-04T06:20:32.047Z,20.50
2019-02-04T06:23:01.728Z,19.97
2019-02-04T06:25:31.350Z,26.40
2019-02-04T06:28:00.942Z,20.43
2019-02-04T06:30:30.572Z,24.43
2019-02-04T06:32:59.995Z,21.03
2019-02-04T06:35:30.217Z,23.87
2019-02-04T06:37:59.543Z,21.13
2019-02-04T06:40:28.875Z,21.60
2019-02-04T06:42:58.191Z,19.40
2019-02-04T06:45:27.518Z,28.40
2019-02-04T06:47:57.140Z,22.43
2019-02-04T06:50:26.635Z,22.27
2019-02-04T06:52:56.060Z,24.43
2019-02-04T06:55:29.814Z,21.03
2019-02-04T06:57:59.367Z,21.10
2019-02-04T07:00:28.707Z,20.30
2019-02-04T07:02:58.468Z,21.23
2019-02-04T07:05:27.748Z,20.90
2019-02-04T07:07:57.076Z,21.27
2019-02-04T07:10:29.396Z,18.40
2019-02-04T07:12:59.003Z,19.67
2019-02-04T07:15:28.601Z,20.77
2019-02-04T07:18:01.879Z,19.67
2019-02-04T07:20:29.433Z,22.57
2019-02-04T07:22:58.825Z,21.23
2019-02-04T07:25:28.422Z,17.60
2019-02-04T07:27:59.615Z,19.80
2019-02-04T07:30:29.300Z,19.60
2019-02-04T07:32:58.867Z,20.43
2019-02-04T07:35:28.198Z,18.23
2019-02-04T07:37:57.547Z,20.50
2019-02-04T07:40:34.521Z,18.10
2019-02-04T07:43:03.970Z,19.33
2019-02-04T07:45:34.182Z,22.90
2019-02-04T07:48:03.501Z,19.73
2019-02-04T07:50:32.829Z,19.43
2019-02-04T07:53:02.177Z,19.87
2019-02-04T07:55:31.810Z,20.80
2019-02-04T07:58:01.209Z,20.90
2019-02-04T08:00:33.607Z,22.33
2019-02-04T08:03:02.938Z,19.27
2019-02-04T08:05:32.330Z,17.97
2019-02-04T08:08:01.977Z,18.17
2019-02-04T08:10:31.339Z,30.80
2019-02-04T08:13:02.081Z,44.00
2019-02-04T08:15:35.373Z,81.53
2019-02-04T08:18:05.663Z,26.53
2019-02-04T08:20:35.231Z,21.37
2019-02-04T08:23:04.549Z,19.73
2019-02-04T08:25:33.906Z,20.20
2019-02-04T08:28:03.238Z,23.73
2019-02-04T08:30:37.942Z,18.40
2019-02-04T08:33:06.565Z,16.43
2019-02-04T08:35:36.150Z,19.97
2019-02-04T08:38:05.465Z,70.57
2019-02-04T08:40:35.447Z,51.53
2019-02-04T08:43:05.077Z,17.57
2019-02-04T08:45:34.565Z,18.47
2019-02-04T08:48:03.878Z,18.87
2019-02-04T08:50:33.530Z,19.73
2019-02-04T08:53:02.886Z,19.30
2019-02-04T08:55:32.198Z,19.73
2019-02-04T08:58:01.625Z,18.27
2019-02-04T09:00:31.257Z,17.70
2019-02-04T09:03:00.905Z,21.07
2019-02-04T09:05:30.276Z,20.37
2019-02-04T09:07:59.854Z,19.87
2019-02-04T09:10:32.366Z,21.10
2019-02-04T09:13:02.032Z,18.50
2019-02-04T09:15:31.360Z,21.30
2019-02-04T09:18:01.088Z,22.77
2019-02-04T09:20:30.717Z,21.97
2019-02-04T09:23:00.409Z,24.13
2019-02-04T09:25:29.813Z,20.13
2019-02-04T09:27:59.515Z,21.60
2019-02-04T09:30:29.657Z,17.97
2019-02-04T09:33:01.934Z,18.97
2019-02-04T09:35:31.269Z,20.20
2019-02-04T09:38:00.867Z,21.30
2019-02-04T09:40:43.106Z,21.23
2019-02-04T09:43:12.427Z,19.27
2019-02-04T09:45:42.321Z,20.03
2019-02-04T09:48:16.741Z,18.90
2019-02-04T09:50:50.591Z,19.43
2019-02-04T09:53:20.228Z,20.27
2019-02-04T09:55:49.601Z,21.13
2019-02-04T09:58:19.183Z,22.57
2019-02-04T10:00:48.810Z,20.33
2019-02-04T10:03:18.420Z,18.63
2019-02-04T10:05:48.039Z,17.73
2019-02-04T10:08:17.663Z,18.00
2019-02-04T10:10:47.326Z,18.80
2019-02-04T10:13:16.888Z,18.97
2019-02-04T10:15:46.371Z,19.30
2019-02-04T10:18:15.714Z,16.17
2019-02-04T10:20:45.050Z,17.57
2019-02-04T10:23:14.552Z,14.97
2019-02-04T10:25:44.834Z,15.60
2019-02-04T10:28:16.226Z,19.37
2019-02-04T10:30:46.059Z,15.80
2019-02-04T10:33:15.879Z,17.53
2019-02-04T10:35:45.216Z,17.40
2019-02-04T10:38:16.469Z,16.20
2019-02-04T10:40:45.680Z,17.23
2019-02-04T10:43:15.357Z,14.03
2019-02-04T10:45:44.736Z,14.50
2019-02-04T10:48:14.095Z,12.33
2019-02-04T10:50:46.600Z,14.43
2019-02-04T10:53:15.008Z,15.63
2019-02-04T10:55:44.564Z,13.40
2019-02-04T10:58:14.625Z,12.87
2019-02-04T11:00:44.619Z,15.40
2019-02-04T11:03:14.014Z,12.93
2019-02-04T11:05:44.378Z,13.50
2019-02-04T11:08:14.990Z,16.07
2019-02-04T11:10:44.791Z,11.97
2019-02-04T11:13:16.607Z,16.70
2019-02-04T11:15:46.163Z,10.67
2019-02-04T11:18:15.605Z,16.53
2019-02-04T11:20:57.170Z,16.40
2019-02-04T11:23:16.846Z,16.07
2019-02-04T11:25:46.342Z,15.17
2019-02-04T11:28:16.221Z,14.93
2019-02-04T11:30:53.366Z,11.70
2019-02-04T11:33:22.867Z,12.37
2019-02-04T11:35:52.641Z,10.27
2019-02-04T11:38:22.077Z,9.90
2019-02-04T11:40:51.921Z,12.53
2019-02-04T11:43:21.270Z,11.47
2019-02-04T11:45:50.620Z,11.33
2019-02-04T11:48:20.083Z,9.73
2019-02-04T11:50:49.488Z,12.53
2019-02-04T11:53:18.783Z,11.13
2019-02-04T11:55:48.628Z,12.63
2019-02-04T11:58:18.216Z,13.80
2019-02-04T12:00:47.568Z,12.77
2019-02-04T12:03:17.144Z,11.27
2019-02-04T12:05:46.728Z,10.70
2019-02-04T12:08:16.350Z,13.83
2019-02-04T12:10:52.944Z,11.83
2019-02-04T12:13:22.637Z,10.43
2019-02-04T12:15:53.130Z,8.97
2019-02-04T12:18:22.452Z,10.47
2019-02-04T12:20:52.043Z,10.20
2019-02-04T12:23:21.628Z,8.83
2019-02-04T12:25:50.948Z,9.77
2019-02-04T12:28:20.269Z,8.23
2019-02-04T12:30:49.835Z,10.47
2019-02-04T12:33:19.424Z,9.23
2019-02-04T12:35:49.015Z,10.47
2019-02-04T12:38:18.624Z,6.90
2019-02-04T12:40:47.934Z,9.43
2019-02-04T12:43:17.239Z,9.60
2019-02-04T12:45:46.849Z,8.70
2019-02-04T12:48:16.428Z,8.30
2019-02-04T12:50:46.041Z,9.47
2019-02-04T12:53:15.525Z,6.97
2019-02-04T12:55:45.100Z,7.67
2019-02-04T12:58:14.686Z,8.10
2019-02-04T13:00:44.015Z,10.23
2019-02-04T13:03:13.341Z,7.40
2019-02-04T13:05:47.091Z,7.27
2019-02-04T13:08:17.405Z,8.27
2019-02-04T13:10:46.796Z,7.83
2019-02-04T13:13:18.799Z,7.33
2019-02-04T13:15:48.445Z,6.83
2019-02-04T13:18:18.013Z,7.10
2019-02-04T13:20:47.812Z,6.13
2019-02-04T13:23:17.146Z,6.33
2019-02-04T13:25:46.736Z,7.77
2019-02-04T13:28:16.425Z,4.70
2019-02-04T13:30:45.725Z,6.40
2019-02-04T13:33:15.344Z,6.77
2019-02-04T13:35:44.666Z,8.30
2019-02-04T13:38:14.024Z,6.97
2019-02-04T13:40:44.533Z,6.87
2019-02-04T13:43:14.070Z,4.97
2019-02-04T13:45:43.674Z,6.70
2019-02-04T13:48:13.640Z,5.23
2019-02-04T13:50:43.239Z,5.63
2019-02-04T13:53:12.580Z,4.83
2019-02-04T13:55:42.246Z,4.40
2019-02-04T13:58:11.541Z,4.73
2019-02-04T14:00:40.870Z,5.03
2019-02-04T14:03:10.927Z,4.33
2019-02-04T14:05:40.278Z,4.93
2019-02-04T14:08:09.604Z,3.90
2019-02-04T14:10:46.078Z,4.70
2019-02-04T14:13:14.825Z,4.43
2019-02-04T14:15:44.330Z,6.40
2019-02-04T14:18:13.659Z,5.97
2019-02-04T14:20:42.974Z,5.30
2019-02-04T14:23:12.550Z,4.57
2019-02-04T14:25:41.907Z,3.50
2019-02-04T14:28:11.456Z,6.80
2019-02-04T14:30:41.023Z,6.67
2019-02-04T14:33:10.357Z,5.47
2019-02-04T14:35:39.650Z,6.23
2019-02-04T14:38:08.957Z,4.43
2019-02-04T14:40:38.538Z,5.20
2019-02-04T14:43:16.034Z,6.07
2019-02-04T14:46:23.077Z,4.73
2019-02-04T14:49:09.245Z,5.67
2019-02-04T14:52:00.496Z,4.60
2019-02-04T14:55:00.377Z,6.10
2019-02-04T14:57:46.446Z,5.17
2019-02-04T15:00:35.064Z,6.87
2019-02-04T15:03:29.427Z,6.50
2019-02-04T15:06:24.680Z,7.37
2019-02-04T15:09:16.335Z,6.70
2019-02-04T15:12:02.102Z,4.43
2019-02-04T15:14:38.962Z,5.90
2019-02-04T15:17:13.480Z,5.77
2019-02-04T15:20:21.991Z,5.70
2019-02-04T15:22:59.437Z,4.20
2019-02-04T15:26:06.688Z,5.93
2019-02-04T15:28:46.544Z,5.03
2019-02-04T15:31:21.046Z,4.50
2019-02-04T15:34:09.766Z,4.93
2019-02-04T15:36:49.459Z,5.53
2019-02-04T15:39:32.364Z,5.93
2019-02-04T15:42:32.318Z,6.30
2019-02-04T15:45:21.179Z,6.43
2019-02-04T15:47:55.448Z,4.17
2019-02-04T15:51:05.906Z,10.40
2019-02-04T15:53:35.522Z,7.53
2019-02-04T15:56:05.705Z,8.03
2019-02-04T15:58:35.312Z,6.60
2019-02-04T16:01:05.073Z,7.90
2019-02-04T16:03:34.637Z,9.50
2019-02-04T16:06:03.970Z,7.40
2019-02-04T16:08:33.574Z,10.97
2019-02-04T16:11:03.144Z,10.30
2019-02-04T16:13:32.744Z,7.43
2019-02-04T16:16:02.376Z,9.40
2019-02-04T16:18:31.948Z,7.87
2019-02-04T16:21:01.543Z,8.47
2019-02-04T16:23:30.954Z,13.07
2019-02-04T16:26:00.913Z,10.70
2019-02-04T16:28:30.522Z,10.93
2019-02-04T16:30:59.858Z,9.63
2019-02-04T16:33:29.467Z,13.10
2019-02-04T16:35:59.200Z,13.07
2019-02-04T16:38:28.529Z,13.67
2019-02-04T16:40:58.152Z,17.47
2019-02-04T16:43:27.749Z,16.63
2019-02-04T16:45:57.170Z,13.93
2019-02-04T16:48:26.547Z,14.33
2019-02-04T16:51:09.569Z,12.43
2019-02-04T16:53:27.451Z,13.77
2019-02-04T16:55:56.986Z,16.30
2019-02-04T16:58:26.593Z,16.53
2019-02-04T17:00:55.938Z,15.57
2019-02-04T17:03:25.275Z,17.40
2019-02-04T17:05:54.607Z,16.17
2019-02-04T17:08:23.914Z,18.23
2019-02-04T17:10:53.710Z,15.10
2019-02-04T17:13:23.306Z,14.77
2019-02-04T17:15:52.878Z,16.23
2019-02-04T17:18:22.496Z,20.07
2019-02-04T17:20:51.822Z,17.33
2019-02-04T17:23:22.695Z,19.07
2019-02-04T17:25:52.417Z,19.27
2019-02-04T17:28:21.738Z,20.17
2019-02-04T17:30:51.053Z,20.83
2019-02-04T17:33:20.366Z,23.33
2019-02-04T17:35:49.972Z,23.93
2019-02-04T17:38:19.568Z,20.83
2019-02-04T17:40:49.220Z,22.43
2019-02-04T17:43:18.817Z,22.27
2019-02-04T17:45:48.145Z,23.30
2019-02-04T17:48:17.735Z,21.47
2019-02-04T17:50:47.481Z,20.10
2019-02-04T17:53:17.450Z,22.47
2019-02-04T17:55:46.838Z,21.70
2019-02-04T17:58:17.029Z,20.60
2019-02-04T18:00:50.976Z,18.57
2019-02-04T18:03:20.659Z,20.63
2019-02-04T18:05:50.118Z,21.40
2019-02-04T18:08:19.447Z,21.07
2019-02-04T18:10:49.053Z,19.73
2019-02-04T18:13:18.414Z,20.27
2019-02-04T18:15:48.167Z,19.83
2019-02-04T18:18:17.765Z,18.63
2019-02-04T18:20:47.460Z,20.83
2019-02-04T18:23:17.117Z,25.20
2019-02-04T18:25:46.782Z,22.97
2019-02-04T18:28:16.146Z,19.73
2019-02-04T18:30:45.530Z,22.70
2019-02-04T18:33:15.221Z,20.40
2019-02-04T18:35:45.052Z,20.10
2019-02-04T18:38:14.650Z,23.50
2019-02-04T18:40:44.715Z,23.10
2019-02-04T18:43:14.409Z,22.33
2019-02-04T18:45:44.004Z,23.03
2019-02-04T18:48:13.623Z,22.67
2019-02-04T18:50:43.640Z,22.97
2019-02-04T18:53:13.006Z,20.87
2019-02-04T18:55:42.604Z,26.23
2019-02-04T18:58:12.238Z,25.53
2019-02-04T19:00:41.837Z,26.47
2019-02-04T19:03:17.316Z,28.17
2019-02-04T19:05:42.813Z,27.87
2019-02-04T19:08:12.147Z,25.07
2019-02-04T19:10:41.477Z,27.77
2019-02-04T19:13:11.177Z,20.67
2019-02-04T19:15:41.058Z,26.47
2019-02-04T19:18:14.657Z,24.20
2019-02-04T19:20:44.492Z,24.30
2019-02-04T19:23:13.824Z,26.63
2019-02-04T19:25:43.168Z,28.20
2019-02-04T19:28:12.783Z,29.10
2019-02-04T19:30:49.873Z,29.10
2019-02-04T19:33:19.492Z,26.50
2019-02-04T19:35:49.099Z,28.43
2019-02-04T19:38:18.504Z,27.17
2019-02-04T19:40:47.851Z,25.80
2019-02-04T19:43:17.753Z,26.20
2019-02-04T19:45:47.101Z,24.77
2019-02-04T19:48:16.771Z,28.73
2019-02-04T19:50:46.416Z,27.43
2019-02-04T19:53:15.813Z,26.47
2019-02-04T19:55:45.173Z,26.03
2019-02-04T19:58:15.072Z,25.37
2019-02-04T20:00:44.727Z,25.63
2019-02-04T20:03:14.826Z,27.37
2019-02-04T20:05:44.448Z,25.47
2019-02-04T20:08:13.830Z,24.90
2019-02-04T20:10:43.173Z,25.43
2019-02-04T20:13:13.927Z,24.90
2019-02-04T20:15:43.562Z,25.23
2019-02-04T20:18:12.905Z,25.67
2019-02-04T20:20:42.729Z,26.17
2019-02-04T20:23:12.324Z,24.80
2019-02-04T20:25:41.650Z,26.27
2019-02-04T20:28:11.328Z,26.33
2019-02-04T20:30:46.193Z,26.30
2019-02-04T20:33:15.359Z,24.97
2019-02-04T20:35:45.071Z,26.63
2019-02-04T20:38:14.688Z,26.53
2019-02-04T20:40:44.412Z,25.13
2019-02-04T20:43:13.768Z,26.90
2019-02-04T20:45:43.467Z,23.23
2019-02-04T20:48:14.154Z,23.03
2019-02-04T20:50:49.662Z,24.57
2019-02-04T20:53:19.294Z,25.57
2019-02-04T20:55:49.023Z,24.97
2019-02-04T20:58:18.630Z,22.83
2019-02-04T21:00:48.320Z,25.30
2019-02-04T21:03:17.950Z,22.20
2019-02-04T21:05:47.577Z,26.62
2019-02-04T21:08:17.204Z,24.37
2019-02-04T21:10:46.807Z,21.87
2019-02-04T21:13:16.186Z,25.30
2019-02-04T21:15:45.823Z,24.73
2019-02-04T21:18:15.532Z,25.70
2019-02-04T21:20:45.119Z,24.63
2019-02-04T21:23:15.137Z,25.93
2019-02-04T21:25:44.504Z,23.17
2019-02-04T21:28:13.890Z,23.17
2019-02-04T21:30:43.629Z,22.97
2019-02-04T21:33:13.268Z,24.97
2019-02-04T21:35:42.609Z,23.77
2019-02-04T21:38:12.691Z,22.13
2019-02-04T21:40:42.331Z,26.60
2019-02-04T21:43:11.733Z,24.10
2019-02-04T21:45:41.321Z,22.97
2019-02-04T21:48:10.912Z,21.70
2019-02-04T21:50:50.061Z,23.07
2019-02-04T21:53:19.461Z,25.02
2019-02-04T21:55:48.787Z,22.50
2019-02-04T21:58:18.248Z,25.03
2019-02-04T22:00:47.882Z,24.37
2019-02-04T22:03:17.466Z,26.73
2019-02-04T22:05:47.484Z,22.50
2019-02-04T22:08:16.781Z,22.23
2019-02-04T22:10:46.105Z,23.63
2019-02-04T22:13:15.762Z,24.72
2019-02-04T22:15:45.370Z,22.48
2019-02-04T22:18:14.724Z,24.12
2019-02-04T22:20:44.213Z,23.60
2019-02-04T22:23:13.639Z,20.97
2019-02-04T22:25:43.342Z,20.47
2019-02-04T22:28:12.946Z,23.53
2019-02-04T22:30:42.832Z,24.40
2019-02-04T22:33:12.155Z,20.77
2019-02-04T22:35:41.593Z,22.13
2019-02-04T22:38:11.094Z,21.05
2019-02-04T22:40:40.727Z,22.90
2019-02-04T22:43:10.088Z,19.07
2019-02-04T22:45:39.441Z,23.87
2019-02-04T22:48:09.149Z,20.13
2019-02-04T22:50:38.512Z,23.57
2019-02-04T22:53:08.261Z,20.33
2019-02-04T22:55:37.575Z,21.90
2019-02-04T22:58:07.172Z,20.50
2019-02-04T23:00:49.168Z,21.40
2019-02-04T23:03:23.025Z,23.33
2019-02-04T23:05:52.611Z,22.57
2019-02-04T23:08:21.967Z,23.50
2019-02-04T23:10:51.560Z,19.30
2019-02-04T23:13:20.922Z,21.17
2019-02-04T23:15:50.587Z,22.73
2019-02-04T23:18:20.290Z,22.23
2019-02-04T23:20:49.990Z,19.37
2019-02-04T23:23:19.747Z,21.83
2019-02-04T23:25:49.102Z,21.93
2019-02-04T23:28:18.715Z,20.77
2019-02-04T23:30:49.051Z,20.68
2019-02-04T23:33:18.758Z,20.48
2019-02-04T23:35:48.475Z,19.47
2019-02-04T23:38:17.849Z,21.30
2019-02-04T23:40:47.575Z,23.45
2019-02-04T23:43:17.192Z,21.47
2019-02-04T23:45:46.534Z,23.12
2019-02-04T23:48:16.186Z,19.30
2019-02-04T23:50:45.571Z,23.50
2019-02-04T23:53:14.906Z,21.27
2019-02-04T23:55:54.366Z,19.67
2019-02-04T23:58:15.662Z,19.73
